Flight Track Log - Related Links

Times and Time Zones

All times are in EDT time to prevent confusion due to time zone crossing. See the BLF729 flight status page for this flight to view local times or setup timezone preferences in your user account.

Time Position Orientation Groundspeed Altitude Reporting Facility
EDT Latitude Longitude Course Direction KTS MPH feet Rate Location/Type
Wed 03:03:00 PM 60.2762 24.3660 262° West  Level Estimated
Wed 03:04:00 PM 60.2620 24.1673 262° West  Level Estimated
Wed 03:05:00 PM 60.2474 23.9687 262° West  Level Estimated
Wed 03:06:00 PM 60.2326 23.7703 262° West  Level Estimated
Wed 03:07:00 PM 60.2174 23.5720 261° West  Level Estimated
Wed 03:08:00 PM 60.2020 23.3740 261° West  Level Estimated
Wed 03:09:00 PM 60.1862 23.1761 261° West  Level Estimated
Wed 03:10:00 PM 60.1702 22.9785 261° West  Level Estimated
Wed 03:11:00 PM 60.1539 22.7810 261° West  Level Estimated
Wed 03:12:00 PM 60.1372 22.5837 260° West  Level Estimated
Wed 03:13:00 PM 60.1203 22.3867 260° West  Level Estimated
Wed 03:14:00 PM 60.1031 22.1898 260° West  Level Estimated
Wed 03:15:00 PM 60.0856 21.9932 260° West  Level Estimated
Wed 03:16:00 PM 60.0678 21.7967 260° West  Level Estimated
Wed 03:17:00 PM 60.0498 21.6005 260° West  Level Estimated
Wed 03:18:00 PM 60.0314 21.4045 259° West  Level Estimated
Wed 03:19:00 PM 60.0127 21.2087 259° West  Level Estimated
Wed 03:20:00 PM 59.9938 21.0131 259° West  Level Estimated
Wed 03:21:00 PM 59.9745 20.8177 259° West  Level Estimated
Wed 03:22:00 PM 59.9550 20.6226 259° West  Level Estimated
Wed 03:23:00 PM 59.9352 20.4277 259° West  Level Estimated
Wed 03:24:00 PM 59.9151 20.2331 258° West  Level Estimated
Wed 03:25:00 PM 59.8947 20.0387 258° West  Level Estimated
Wed 03:26:00 PM 59.8740 19.8445 258° West  Level Estimated
Wed 03:27:00 PM 59.8531 19.6506 258° West  Level Estimated
Wed 03:28:00 PM 59.8318 19.4569 258° West  Level Estimated
Wed 03:29:00 PM 59.8103 19.2634 258° West  Level Estimated
Wed 03:30:00 PM 59.7885 19.0702 257° West  Level Estimated
Wed 03:31:00 PM 59.7664 18.8773 257° West  Level Estimated
Wed 03:32:00 PM 59.7440 18.6846 257° West  Level Estimated
Wed 03:33:00 PM 59.7213 18.4922 257° West  Level Estimated
Wed 03:34:00 PM 59.6984 18.3000 257° West  Level Estimated
Wed 03:35:00 PM 59.6752 18.1082 257° West  Level Estimated
Wed 03:36:00 PM 59.6519 17.9186 256° West  Level Estimated
Wed 03:37:00 PM 59.6519 17.9186 North  Level Estimated
Wed 03:38:00 PM 59.6519 17.9186 North  Level Estimated
Wed 03:39:00 PM 59.6519 17.9186 North  Level Estimated
Wed 03:40:00 PM 59.6519 17.9186 North  Level Estimated
Wed 03:41:00 PM 59.6519 17.9186 North  Level Estimated
Wed 03:42:00 PM 59.6519 17.9186 North  Level Estimated
Wed 03:43:00 PM 59.6519 17.9186 North  Level Estimated
Wed 03:44:00 PM 59.6519 17.9186 North  Level Estimated
Wed 03:45:00 PM 59.6519 17.9186 North  Level Estimated
Wed 03:46:00 PM 59.6519 17.9186 North  Level Estimated
Wed 03:47:00 PM 59.6519 17.9186 North  Level Estimated
Wed 03:48:00 PM 59.6519 17.9186 North  Level Estimated
Wed 03:49:00 PM 59.6519 17.9186 North  Level Estimated
Wed 03:50:00 PM 59.6519 17.9186 North  Level Estimated
Wed 03:51:00 PM 59.6519 17.9186 North  Level Estimated

Login

Don't have an account? Register now (free) for customized features, flight alerts, and more!